createdAt,value
2016-11-15T11:03:03.199Z,1056
2016-11-15T11:04:16.963Z,1348
2016-11-15T11:10:44.899Z,996
2016-11-15T11:12:18.240Z,1260
2016-11-15T11:20:20.763Z,1332
2016-11-15T11:21:49.522Z,1152
2016-11-15T11:23:07.269Z,1348
2016-11-15T11:24:20.735Z,1244
2016-11-15T11:25:35.280Z,1468
2016-11-15T11:26:49.065Z,1384
2016-11-15T11:29:09.429Z,1320
2016-11-15T11:30:44.473Z,1380
2016-11-15T11:32:27.665Z,1412
2016-11-15T11:35:45.835Z,1392
2016-11-15T11:39:12.976Z,1484
2016-11-15T11:41:48.237Z,1316
2016-11-15T11:43:02.868Z,1392
2016-11-15T11:44:31.616Z,1480
2016-11-15T11:45:45.524Z,1560
2016-11-15T11:47:14.394Z,1628
2016-11-15T11:48:28.424Z,1632
2016-11-15T11:49:41.903Z,1580
2016-11-15T11:50:55.434Z,1576
2016-11-15T11:52:08.974Z,1436
2016-11-15T11:53:23.261Z,1372
2016-11-15T11:54:39.458Z,1328
2016-11-15T11:55:54.804Z,1456
2016-11-15T12:02:44.528Z,1720
2016-11-15T12:03:58.966Z,1308
2016-11-15T12:05:13.366Z,1428
2016-11-15T12:06:26.877Z,1240
2016-11-15T12:07:40.886Z,1100
2016-11-15T12:08:56.999Z,1128
2016-11-15T12:10:11.830Z,1148
2016-11-15T12:11:28.670Z,880
2016-11-15T12:12:42.431Z,828
2016-11-15T12:13:56.707Z,728
2016-11-15T12:15:25.279Z,736
2016-11-15T12:16:39.427Z,700
2016-11-15T12:17:52.945Z,800
2016-11-15T12:19:06.478Z,868
2016-11-15T12:20:35.008Z,852
2016-11-15T12:21:49.071Z,1000
2016-11-15T12:23:02.855Z,1052
2016-11-15T12:24:16.367Z,1248
2016-11-15T12:25:29.962Z,1544
2016-11-15T12:26:45.490Z,1608
2016-11-15T12:28:15.412Z,1476
2016-11-15T12:29:30.087Z,1444
2016-11-15T15:49:03.971Z,4
2016-11-15T15:50:33.211Z,8
2016-11-15T15:51:48.924Z,4
2016-11-15T15:53:24.344Z,4
2016-11-15T15:55:23.006Z,4
2016-11-15T16:02:18.397Z,0
2016-11-15T16:03:47.965Z,0
2016-11-15T16:05:31.775Z,0
2016-11-15T16:08:31.200Z,0
2016-11-15T16:10:00.924Z,0
2016-11-15T16:11:30.097Z,0
2016-11-15T16:12:59.020Z,0
2016-11-15T16:14:13.684Z,0
2016-11-15T16:17:58.040Z,0
2016-11-15T16:19:28.144Z,0
2016-11-15T16:20:44.413Z,0
2016-11-15T16:21:59.519Z,0
2016-11-15T16:23:29.408Z,0
2016-11-15T16:24:44.480Z,0
2016-11-15T16:25:59.055Z,0
2016-11-15T16:27:13.986Z,0
2016-11-15T16:28:29.741Z,0
2016-11-15T16:29:46.044Z,0
2016-11-15T16:31:01.407Z,0
2016-11-15T16:32:16.061Z,0
2016-11-15T16:33:30.629Z,0
2016-11-15T16:35:00.840Z,0
2016-11-15T16:36:15.689Z,0
2016-11-15T16:37:30.208Z,0
2016-11-15T16:38:44.690Z,0
2016-11-15T16:39:58.979Z,0
2016-11-15T16:41:13.319Z,0
2016-11-15T16:42:27.736Z,0
2016-11-15T16:43:42.683Z,0
2016-11-15T16:44:57.479Z,0
2016-11-15T16:46:11.949Z,0
2016-11-15T16:47:25.958Z,0
2016-11-15T16:48:40.525Z,0
2016-11-15T16:49:55.706Z,0
2016-11-15T16:51:10.176Z,0
2016-11-15T16:52:24.679Z,0
2016-11-15T16:53:38.913Z,0
2016-11-15T16:54:52.901Z,0
2016-11-15T16:56:07.620Z,0
2016-11-15T16:57:22.609Z,0
2016-11-15T16:58:37.111Z,0
2016-11-15T16:59:51.326Z,0
2016-11-15T17:01:06.267Z,0
2016-11-15T17:02:20.706Z,0
2016-11-15T17:03:35.036Z,0
2016-11-15T17:04:49.755Z,0
2016-11-15T17:06:03.932Z,0
2016-11-15T17:07:18.873Z,0
2016-11-15T17:08:33.351Z,0
2016-11-15T17:09:47.794Z,0
2016-11-15T17:11:02.081Z,0
2016-11-15T17:12:16.305Z,0
2016-11-15T17:13:30.437Z,0
2016-11-15T17:14:47.618Z,0
2016-11-15T17:16:01.724Z,0
2016-11-15T17:17:15.950Z,0
2016-11-15T17:18:30.313Z,0
2016-11-15T17:19:44.542Z,0
2016-11-15T17:21:14.456Z,0
2016-11-15T17:22:29.016Z,0
2016-11-15T17:23:58.266Z,0
2016-11-15T17:25:13.033Z,0
2016-11-15T17:26:28.155Z,0
2016-11-15T17:27:57.599Z,0
2016-11-15T17:29:11.925Z,0
2016-11-15T17:30:27.189Z,0
2016-11-15T17:31:42.394Z,0
2016-11-15T17:32:56.929Z,0
2016-11-15T17:34:26.417Z,0
2016-11-15T17:35:40.661Z,0
2016-11-15T17:36:55.786Z,0
2016-11-15T17:38:10.915Z,0
2016-11-15T17:39:25.187Z,0
2016-11-15T17:40:39.543Z,0
2016-11-15T17:41:54.262Z,0
2016-11-15T17:43:08.759Z,0
2016-11-15T17:44:24.091Z,0
2016-11-15T17:45:38.301Z,0
2016-11-15T17:46:52.907Z,0
2016-11-15T17:48:07.475Z,0
2016-11-15T17:49:22.183Z,0
2016-11-15T17:50:37.256Z,0
2016-11-15T17:51:51.425Z,0
2016-11-15T17:53:07.054Z,0
2016-11-15T17:54:21.475Z,0
2016-11-15T17:55:36.017Z,0
2016-11-15T17:56:50.288Z,0
2016-11-15T17:58:04.657Z,0
2016-11-15T17:59:19.308Z,0
2016-11-15T18:00:33.735Z,0
2016-11-15T18:01:49.075Z,0
2016-11-15T18:03:03.756Z,0
2016-11-15T18:04:18.777Z,0
2016-11-15T18:05:33.431Z,0
2016-11-15T18:07:03.965Z,0
2016-11-15T18:08:18.980Z,0
2016-11-15T18:09:33.845Z,0
2016-11-15T18:10:48.335Z,0
2016-11-15T18:12:03.288Z,0
2016-11-15T18:13:19.269Z,0
2016-11-15T18:14:35.160Z,0
2016-11-15T18:15:49.601Z,0
2016-11-15T18:17:03.864Z,0
2016-11-15T18:18:18.879Z,0
2016-11-15T18:19:33.366Z,0
2016-11-15T18:20:48.253Z,0
2016-11-15T18:22:17.425Z,0
2016-11-15T18:23:32.875Z,0
2016-11-15T18:24:48.813Z,0
2016-11-15T18:26:03.646Z,0
2016-11-15T18:27:18.437Z,0
2016-11-15T18:28:33.288Z,0
2016-11-15T18:29:48.110Z,0
2016-11-15T18:31:02.817Z,0
2016-11-15T18:32:19.481Z,0
2016-11-15T18:33:37.547Z,0
2016-11-15T18:34:53.123Z,0
2016-11-15T18:36:08.423Z,0
2016-11-15T18:37:23.738Z,0
2016-11-15T18:38:38.873Z,0
2016-11-15T18:39:53.385Z,0
2016-11-15T18:41:08.706Z,0
2016-11-15T18:42:36.058Z,0
2016-11-15T18:43:50.546Z,0
2016-11-15T18:45:05.901Z,0
2016-11-15T18:46:20.795Z,0
2016-11-15T18:47:35.019Z,0
2016-11-15T18:48:49.776Z,0
2016-11-15T18:50:19.641Z,0
2016-11-15T18:51:33.996Z,0
2016-11-15T18:52:49.478Z,0
2016-11-15T18:54:04.336Z,0
2016-11-15T18:55:19.743Z,0
2016-11-15T18:56:51.056Z,0
2016-11-15T18:58:07.515Z,0
2016-11-15T18:59:25.715Z,0
2016-11-15T19:00:42.437Z,0
2016-11-15T19:02:01.770Z,0
2016-11-15T19:03:20.030Z,0
2016-11-15T19:04:36.172Z,0
2016-11-15T19:05:50.768Z,0
2016-11-15T19:07:05.726Z,0
2016-11-15T19:08:21.274Z,0
2016-11-15T19:09:37.265Z,0
2016-11-15T19:10:53.104Z,0
2016-11-15T19:12:07.487Z,0
2016-11-15T19:13:21.848Z,0
2016-11-15T19:14:36.192Z,0
2016-11-15T19:15:50.916Z,0
2016-11-15T19:17:05.367Z,0
2016-11-15T19:18:20.681Z,0
2016-11-15T19:19:35.139Z,0
2016-11-15T19:20:49.822Z,0
2016-11-15T19:22:04.844Z,0
2016-11-15T19:23:20.558Z,0
2016-11-15T19:24:35.349Z,0
2016-11-15T19:25:50.150Z,0
2016-11-15T19:27:04.976Z,0
2016-11-15T19:28:19.637Z,0
2016-11-15T19:29:34.323Z,0
2016-11-15T19:30:48.700Z,0
2016-11-15T19:32:04.103Z,0
2016-11-15T19:33:20.210Z,0
2016-11-15T19:34:48.244Z,0
2016-11-15T19:36:22.982Z,0
2016-11-15T19:37:39.033Z,0
2016-11-15T19:38:53.854Z,0
2016-11-15T19:40:27.836Z,0
2016-11-15T19:41:42.666Z,0
2016-11-15T19:42:57.537Z,0
2016-11-15T19:44:12.619Z,0
2016-11-15T19:45:27.031Z,0
2016-11-15T19:46:42.038Z,0
2016-11-15T19:47:57.028Z,0
2016-11-15T19:49:12.456Z,0
2016-11-15T19:50:26.879Z,0
2016-11-15T19:51:42.124Z,0
2016-11-15T19:53:00.439Z,0
2016-11-15T19:54:16.088Z,0
2016-11-15T19:55:30.681Z,0
2016-11-15T19:56:47.156Z,0
2016-11-15T19:58:03.216Z,0
2016-11-15T19:59:17.699Z,0
2016-11-15T20:00:32.962Z,0
2016-11-15T20:01:47.757Z,0
2016-11-15T20:03:02.469Z,0
2016-11-15T20:04:17.412Z,0
2016-11-15T20:05:47.112Z,0
2016-11-15T20:07:01.698Z,0
2016-11-15T20:08:16.664Z,0
2016-11-15T20:09:31.476Z,0
2016-11-15T20:10:45.869Z,0
2016-11-15T20:12:00.963Z,0
2016-11-15T20:13:15.698Z,0
2016-11-15T20:14:30.473Z,0
2016-11-15T20:15:44.781Z,0
2016-11-15T20:16:59.652Z,0
2016-11-15T20:18:15.432Z,0
2016-11-15T20:19:30.011Z,0
2016-11-15T20:20:44.805Z,0
2016-11-15T20:21:59.782Z,0
2016-11-15T20:23:14.531Z,0
2016-11-15T20:24:29.383Z,0
2016-11-15T20:25:44.189Z,0
2016-11-15T20:26:58.683Z,0
2016-11-15T20:28:13.604Z,0
2016-11-15T20:29:28.350Z,0
2016-11-15T20:30:43.078Z,0
2016-11-15T20:31:57.605Z,0
2016-11-15T20:33:12.306Z,0
2016-11-15T20:34:26.914Z,0
2016-11-15T20:35:41.667Z,0
2016-11-15T20:36:56.923Z,0
2016-11-15T20:38:12.538Z,0
2016-11-15T20:39:26.665Z,0
2016-11-15T20:40:41.678Z,0
2016-11-15T20:41:55.942Z,0
2016-11-15T20:43:10.722Z,0
2016-11-15T20:44:24.993Z,0
2016-11-15T20:45:48.740Z,0
2016-11-15T20:47:03.715Z,0
2016-11-15T20:48:19.022Z,0
2016-11-15T20:49:34.142Z,0
2016-11-15T20:50:48.678Z,0
2016-11-15T20:52:03.447Z,0
2016-11-15T20:53:18.071Z,0
2016-11-15T20:54:32.974Z,0
2016-11-15T20:55:47.061Z,0
2016-11-15T20:57:01.499Z,0
2016-11-15T20:58:16.349Z,0
2016-11-15T20:59:31.257Z,0
2016-11-15T21:00:46.174Z,0
2016-11-15T21:02:01.179Z,0
2016-11-15T21:03:16.040Z,0
2016-11-15T21:04:31.085Z,0
2016-11-15T21:05:45.503Z,0
2016-11-15T21:07:00.228Z,0
2016-11-15T21:08:15.249Z,0
2016-11-15T21:09:30.778Z,0
2016-11-15T21:10:48.628Z,0
2016-11-15T21:12:02.974Z,0
2016-11-15T21:13:17.939Z,0
2016-11-15T21:14:32.526Z,0
2016-11-15T21:15:47.689Z,0
2016-11-15T21:17:17.228Z,0
2016-11-15T21:18:31.993Z,0
2016-11-15T21:19:47.255Z,0
2016-11-15T21:21:01.947Z,0
2016-11-15T21:22:16.525Z,0
2016-11-15T21:23:30.737Z,0
2016-11-15T21:24:45.480Z,0
2016-11-15T21:27:29.749Z,0
2016-11-15T21:28:44.383Z,0
2016-11-15T21:29:59.930Z,0
2016-11-15T21:31:29.297Z,0
2016-11-15T21:33:17.020Z,0
2016-11-15T21:34:31.579Z,0
2016-11-15T21:35:46.382Z,0
2016-11-15T21:37:01.252Z,0
2016-11-15T21:38:16.086Z,0
2016-11-15T21:39:31.368Z,0
2016-11-15T21:40:46.419Z,0
2016-11-15T21:42:01.674Z,0
2016-11-15T21:43:16.893Z,0
2016-11-15T21:44:31.875Z,0
2016-11-15T21:45:47.316Z,0
2016-11-15T21:47:01.943Z,0
2016-11-15T21:48:31.029Z,0
2016-11-15T21:51:16.346Z,0
2016-11-15T21:52:32.189Z,0
2016-11-15T21:53:47.545Z,0
2016-11-15T21:55:02.699Z,0
2016-11-15T21:56:17.613Z,0
2016-11-15T21:57:32.369Z,0
2016-11-15T21:58:47.345Z,0
2016-11-15T22:00:02.742Z,0
2016-11-15T22:01:17.979Z,0
2016-11-15T22:02:33.417Z,0
2016-11-15T22:03:48.503Z,0
2016-11-15T22:05:03.928Z,0
2016-11-15T22:06:33.775Z,0
2016-11-15T22:07:48.937Z,0
2016-11-15T22:09:03.520Z,0
2016-11-15T22:10:32.742Z,0
2016-11-15T22:11:47.621Z,0
2016-11-15T22:13:31.666Z,0
2016-11-15T22:14:46.443Z,0
2016-11-15T22:16:00.940Z,0
2016-11-15T22:17:16.381Z,0
2016-11-15T22:18:31.100Z,0
2016-11-15T22:19:46.504Z,0
2016-11-15T22:21:01.412Z,0
2016-11-15T22:22:16.658Z,0
2016-11-15T22:23:31.154Z,0
2016-11-15T22:24:45.831Z,0
2016-11-15T22:26:01.411Z,0
2016-11-15T22:27:15.924Z,0
2016-11-15T22:28:30.347Z,0
2016-11-15T22:29:44.877Z,0
2016-11-15T22:31:01.707Z,0
2016-11-15T22:32:16.329Z,0
2016-11-15T22:33:31.595Z,0
2016-11-15T22:34:46.369Z,0
2016-11-15T22:36:01.045Z,0
2016-11-15T22:37:15.240Z,0
2016-11-15T22:38:29.796Z,0
2016-11-15T22:39:44.376Z,0
2016-11-15T22:40:58.977Z,0
2016-11-15T22:42:13.856Z,0
2016-11-15T22:43:28.728Z,0
2016-11-15T22:44:43.125Z,0
2016-11-15T22:45:57.867Z,0
2016-11-15T22:47:12.455Z,0
2016-11-15T22:48:26.948Z,0
2016-11-15T22:49:41.124Z,0
2016-11-15T22:50:55.773Z,0
2016-11-15T22:52:10.099Z,0
2016-11-15T22:53:25.547Z,0
2016-11-15T22:54:40.085Z,0
2016-11-15T22:55:55.049Z,0
2016-11-15T22:57:10.734Z,0
2016-11-15T22:58:25.143Z,0
2016-11-15T22:59:40.541Z,0
2016-11-15T23:00:56.572Z,0
2016-11-15T23:02:11.485Z,0
2016-11-15T23:03:41.256Z,0
2016-11-15T23:04:56.195Z,0
2016-11-15T23:06:11.165Z,0
2016-11-15T23:07:25.987Z,0
2016-11-15T23:08:40.599Z,0
2016-11-15T23:09:56.283Z,0
2016-11-15T23:11:11.372Z,0
2016-11-15T23:12:25.887Z,0
2016-11-15T23:13:40.603Z,0
2016-11-15T23:14:56.040Z,0
2016-11-15T23:16:11.987Z,0
2016-11-15T23:17:26.852Z,0
2016-11-15T23:18:41.729Z,0
2016-11-15T23:19:56.277Z,0
2016-11-15T23:21:11.268Z,0
2016-11-15T23:23:55.392Z,0
2016-11-15T23:25:09.829Z,0
2016-11-15T23:26:24.686Z,0
2016-11-15T23:27:39.698Z,0
2016-11-15T23:28:55.215Z,0
2016-11-15T23:30:10.013Z,0
2016-11-15T23:31:39.268Z,0
2016-11-15T23:32:54.026Z,0
2016-11-15T23:34:08.819Z,0
2016-11-15T23:35:23.884Z,0
2016-11-15T23:36:38.928Z,0
2016-11-15T23:37:54.166Z,0
2016-11-15T23:39:09.251Z,0
2016-11-15T23:40:24.582Z,0
2016-11-15T23:41:39.816Z,0
2016-11-15T23:42:54.381Z,0
2016-11-15T23:44:09.605Z,0
2016-11-15T23:45:24.301Z,0
2016-11-15T23:46:39.435Z,0
2016-11-15T23:47:53.599Z,0
2016-11-15T23:50:27.073Z,0
2016-11-15T23:51:41.483Z,0
2016-11-15T23:52:56.771Z,0
2016-11-15T23:54:11.447Z,0
2016-11-15T23:55:26.710Z,0
2016-11-15T23:56:41.333Z,0
2016-11-15T23:57:55.710Z,0
2016-11-15T23:59:10.779Z,0
